Terminal Aerodrome Forecast
Issued by NWS

Home | Current Version | Previous Version | Text Only | Print | Product List | Glossary On
Versions: 1 2 3 4 5 6 7 8 9 10 11 12
285
FTUS46 KHNX 271130
TAFMCE
TAF
KMCE 271130Z 2712/2812 33008KT P6SM SCT030
     FM271900 33015G25KT P6SM SKC
     FM280300 33007KT P6SM SCT250=

USA.gov is the U.S. government's official web portal to all federal, state and local government web resources and services.